Time;durP1;ratioP1;P1;durP2;ratioP2;P2;SDS_P1;SDS_P2;PMS_P1;PMS_P2;Temp;Humidity;BMP_temperature;BMP_pressure;BME280_temperature;BME280_humidity;BME280_pressure;Samples;Min_cycle;Max_cycle;Signal;HPM_P1;HPM_P2
2023/10/16 00:00:45;;;;;;;2.22;1.02;;;;;;;9.63;97.07;100081.47;6318496;27;20142;-74
2023/10/16 00:03:48;;;;;;;2.88;1.50;;;;;;;9.27;100.00;100084.38;6218527;28;20102;-74
2023/10/16 00:06:49;;;;;;;1.73;1.30;;;;;;;9.33;100.00;100077.97;6217248;28;20038;-73
2023/10/16 00:09:53;;;;;;;7.47;1.70;;;;;;;9.27;100.00;100076.56;6218719;28;20140;-73
2023/10/16 00:12:56;;;;;;;3.85;1.63;;;;;;;9.40;100.00;100085.38;6218880;28;20524;-72
2023/10/16 00:15:59;;;;;;;3.95;1.67;;;;;;;9.56;100.00;100081.94;6216501;28;20138;-74
2023/10/16 00:19:01;;;;;;;4.78;1.75;;;;;;;9.62;100.00;100086.78;6217481;28;20456;-73
2023/10/16 00:22:02;;;;;;;5.88;1.80;;;;;;;9.62;100.00;100089.41;6212436;28;20479;-74
2023/10/16 00:25:06;;;;;;;5.20;2.30;;;;;;;9.48;99.96;100088.38;6216901;28;20054;-74
2023/10/16 00:28:08;;;;;;;2.90;1.63;;;;;;;9.33;97.78;100080.59;6217971;28;20409;-74
2023/10/16 00:31:08;;;;;;;3.10;1.63;;;;;;;9.60;98.01;100084.25;6217248;28;20053;-73
2023/10/16 00:34:19;;;;;;;2.65;1.80;;;;;;;9.62;95.87;100082.41;6218884;28;20558;-72
2023/10/16 00:37:21;;;;;;;1.60;1.30;;;;;;;9.70;96.19;100082.00;6218531;28;20058;-73
2023/10/16 00:40:35;;;;;;;6.03;1.30;;;;;;;9.80;96.81;100085.75;6216832;28;20494;-72
2023/10/16 00:43:36;;;;;;;4.47;1.80;;;;;;;9.88;97.07;100082.69;6222248;28;20057;-72
2023/10/16 00:46:38;;;;;;;1.85;1.33;;;;;;;9.93;95.94;100091.09;6222983;28;20077;-73
2023/10/16 00:49:39;;;;;;;1.75;1.35;;;;;;;9.96;96.38;100085.69;6221529;28;20056;-73
2023/10/16 00:52:42;;;;;;;2.97;1.67;;;;;;;9.94;95.63;100086.72;6221628;28;20062;-74
2023/10/16 00:55:43;;;;;;;8.82;1.73;;;;;;;9.92;94.33;100094.59;6221205;28;20050;-73
2023/10/16 00:58:48;;;;;;;1.92;1.45;;;;;;;9.77;94.48;100095.50;6210422;28;20169;-72
2023/10/16 01:02:04;;;;;;;2.17;1.30;;;;;;;9.73;94.35;100101.81;6198278;28;20050;-72
2023/10/16 01:05:05;;;;;;;1.27;1.10;;;;;;;9.72;93.78;100106.19;6198097;28;20087;-73
2023/10/16 01:08:07;;;;;;;4.35;1.33;;;;;;;9.64;92.49;100098.78;6299339;28;20533;-73
2023/10/16 01:11:09;;;;;;;;;;;;;;;9.59;92.59;100107.78;6198539;28;20406;-73
2023/10/16 01:14:12;;;;;;;3.90;1.60;;;;;;;9.53;92.18;100105.53;6197142;28;19929;-74
2023/10/16 01:17:17;;;;;;;4.13;1.40;;;;;;;9.50;93.03;100111.75;6198149;28;20708;-74
2023/10/16 01:20:18;;;;;;;4.80;1.55;;;;;;;9.41;92.36;100107.91;6197975;28;20570;-74
2023/10/16 01:23:25;;;;;;;3.15;1.17;;;;;;;9.35;90.97;100117.78;6197211;28;20065;-74
2023/10/16 01:26:26;;;;;;;1.65;1.02;;;;;;;9.28;91.39;100106.88;6298701;28;20410;-74
2023/10/16 01:29:31;;;;;;;2.55;1.40;;;;;;;9.23;90.50;100117.56;6197486;28;20047;-72
2023/10/16 01:32:32;;;;;;;1.77;1.02;;;;;;;9.17;92.45;100122.25;6197570;28;20078;-73
2023/10/16 01:35:36;;;;;;;1.58;0.90;;;;;;;9.19;91.61;100121.25;6196363;28;20133;-72
2023/10/16 01:38:39;;;;;;;2.67;1.27;;;;;;;9.23;91.37;100127.97;6196541;28;20099;-74
2023/10/16 01:41:40;;;;;;;2.85;1.50;;;;;;;9.21;93.02;100122.00;6197565;28;20507;-73
2023/10/16 01:44:44;;;;;;;6.22;1.20;;;;;;;9.18;91.33;100122.19;6299458;28;20073;-73
2023/10/16 01:47:47;;;;;;;3.28;1.20;;;;;;;8.97;92.18;100126.75;6196815;28;20046;-73
2023/10/16 01:50:49;;;;;;;2.50;1.00;;;;;;;8.97;92.12;100133.72;6196597;28;20482;-71
2023/10/16 01:53:51;;;;;;;4.10;1.55;;;;;;;8.91;89.96;100129.69;6297974;28;20145;-73
2023/10/16 01:56:54;;;;;;;2.78;1.25;;;;;;;8.95;88.81;100131.19;6197103;28;20582;-73
2023/10/16 01:59:56;;;;;;;2.10;1.25;;;;;;;8.85;87.35;100136.06;6197462;28;20085;-73
2023/10/16 02:02:57;;;;;;;1.98;1.23;;;;;;;8.87;86.67;100133.38;6196139;28;20067;-72
2023/10/16 02:05:58;;;;;;;0.95;0.88;;;;;;;8.83;85.33;100134.44;6196101;28;20519;-72
2023/10/16 02:09:04;;;;;;;2.78;1.65;;;;;;;8.84;85.35;100134.38;6195912;28;20047;-71
2023/10/16 02:12:10;;;;;;;2.67;1.38;;;;;;;9.02;86.50;100134.34;6196705;28;20061;-72
2023/10/16 02:15:14;;;;;;;2.15;1.27;;;;;;;9.07;87.79;100135.75;6195432;28;20479;-72
2023/10/16 02:18:24;;;;;;;1.60;1.10;;;;;;;8.97;86.93;100144.13;6195985;28;20051;-73
2023/10/16 02:21:25;;;;;;;1.42;1.10;;;;;;;8.95;89.21;100133.81;6194968;28;20054;-72
2023/10/16 02:24:26;;;;;;;2.83;1.38;;;;;;;9.00;90.42;100138.78;6195160;28;20085;-73
2023/10/16 02:27:30;;;;;;;2.08;1.20;;;;;;;9.03;89.31;100129.03;6195576;28;20107;-73
2023/10/16 02:30:35;;;;;;;2.53;1.30;;;;;;;9.04;89.81;100133.34;6196985;28;20054;-73
2023/10/16 02:33:37;;;;;;;4.80;1.52;;;;;;;8.92;89.87;100133.97;6196230;28;20081;-72
2023/10/16 02:36:39;;;;;;;8.63;2.00;;;;;;;8.82;89.45;100123.22;6195249;28;20493;-73
2023/10/16 02:39:41;;;;;;;4.18;1.67;;;;;;;8.80;89.36;100130.25;6195630;28;20060;-73
2023/10/16 02:42:42;;;;;;;;;;;;;;;8.74;89.78;100140.16;6197227;28;20058;-72
2023/10/16 02:45:46;;;;;;;3.92;1.63;;;;;;;8.54;89.18;100143.75;6195795;28;20075;-72
2023/10/16 02:48:48;;;;;;;10.20;4.47;;;;;;;8.43;89.87;100139.13;6195409;28;20046;-72
2023/10/16 02:51:48;;;;;;;11.80;5.00;;;;;;;8.34;91.00;100160.34;6194791;28;20383;-72
2023/10/16 02:54:49;;;;;;;14.68;4.30;;;;;;;8.21;91.90;100160.09;6197049;28;20476;-73
2023/10/16 02:57:50;;;;;;;5.55;2.22;;;;;;;8.11;91.10;100158.88;6213161;28;20050;-73
2023/10/16 03:01:06;;;;;;;3.50;1.88;;;;;;;8.05;91.44;100165.22;6214234;28;20147;-72
2023/10/16 03:04:08;;;;;;;6.38;1.90;;;;;;;8.09;91.92;100177.13;6204557;28;20061;-73
2023/10/16 03:07:09;;;;;;;3.60;1.73;;;;;;;8.08;91.60;100183.25;6219492;28;20050;-72
2023/10/16 03:10:10;;;;;;;5.63;1.73;;;;;;;8.06;91.09;100193.72;6202515;28;20061;-72
2023/10/16 03:13:15;;;;;;;6.65;1.98;;;;;;;8.11;90.48;100196.09;6194674;28;20054;-73
2023/10/16 03:16:22;;;;;;;4.20;2.20;;;;;;;7.99;90.22;100218.34;6194840;28;20054;-72
2023/10/16 03:19:23;;;;;;;13.98;2.42;;;;;;;8.02;90.36;100215.59;6200327;28;20049;-72
2023/10/16 03:22:24;;;;;;;5.53;1.63;;;;;;;7.97;89.43;100219.31;6219606;28;20065;-72
2023/10/16 03:25:50;;;;;;;1.80;1.40;;;;;;;7.93;89.96;100213.44;6219788;28;20103;-72
2023/10/16 03:28:53;;;;;;;2.55;1.63;;;;;;;7.96;90.29;100222.84;6219202;28;20111;-72
2023/10/16 03:31:53;;;;;;;3.40;1.88;;;;;;;7.90;89.64;100226.56;6218518;28;20054;-72
2023/10/16 03:34:57;;;;;;;1.90;1.65;;;;;;;7.80;90.18;100220.97;6204997;28;20058;-72
2023/10/16 03:37:59;;;;;;;2.88;1.58;;;;;;;7.87;90.52;100232.75;6193803;28;20537;-71
2023/10/16 03:41:11;;;;;;;7.30;2.08;;;;;;;7.75;90.40;100228.13;6208050;28;20072;-71
2023/10/16 03:44:17;;;;;;;1.58;1.38;;;;;;;7.80;90.29;100230.50;6210065;28;20054;-73
2023/10/16 03:47:19;;;;;;;5.32;1.70;;;;;;;7.75;90.11;100229.88;6219460;28;20054;-73
2023/10/16 03:50:34;;;;;;;2.25;1.73;;;;;;;7.65;90.38;100221.66;6219395;28;20089;-72
2023/10/16 03:53:35;;;;;;;4.47;1.52;;;;;;;7.49;90.13;100210.31;6211933;28;20062;-73
2023/10/16 03:56:36;;;;;;;3.85;1.40;;;;;;;7.46;90.30;100206.94;6194440;28;20054;-72
2023/10/16 03:59:42;;;;;;;1.50;1.40;;;;;;;7.33;90.56;100207.53;6193667;28;20070;-73
2023/10/16 04:02:44;;;;;;;4.25;1.75;;;;;;;7.24;90.53;100214.84;6205224;28;20210;-72
2023/10/16 04:05:46;;;;;;;4.88;2.08;;;;;;;7.20;91.27;100228.03;6200533;28;20099;-72
2023/10/16 04:08:48;;;;;;;;;;;;;;;7.15;92.51;100240.38;6218106;28;20084;-73
2023/10/16 04:11:54;;;;;;;2.88;2.17;;;;;;;7.10;91.82;100242.31;6212819;28;19927;-72
2023/10/16 04:15:04;;;;;;;2.10;1.70;;;;;;;6.97;92.51;100239.41;6208934;28;20061;-72
2023/10/16 04:18:05;;;;;;;5.07;2.15;;;;;;;7.11;92.11;100241.41;6217008;28;20054;-72
2023/10/16 04:21:37;;;;;;;4.25;2.38;;;;;;;7.07;91.94;100240.69;6217708;28;20088;-72
2023/10/16 04:27:32;;;;;;;4.22;2.80;;;;;;;6.94;91.68;100229.16;6202863;28;20042;-72
2023/10/16 04:30:39;;;;;;;8.40;2.63;;;;;;;6.88;91.54;100226.81;6212248;28;20136;-71
2023/10/16 04:33:53;;;;;;;5.32;2.78;;;;;;;6.83;91.04;100233.03;6216933;28;20061;-71
2023/10/16 04:43:37;;;;;;;6.72;2.58;;;;;;;6.73;92.55;100254.25;6209196;28;20133;-71
2023/10/16 04:50:11;;;;;;;7.75;3.08;;;;;;;6.65;92.13;100270.13;6228375;28;20058;-71
2023/10/16 04:53:12;;;;;;;4.45;2.92;;;;;;;6.63;92.15;100264.16;6216938;28;20057;-71
2023/10/16 04:56:30;;;;;;;4.32;3.03;;;;;;;6.57;92.60;100269.59;6214206;28;20065;-72
2023/10/16 04:59:37;;;;;;;7.15;2.97;;;;;;;6.57;92.51;100267.00;6216580;28;20053;-72
2023/10/16 05:02:41;;;;;;;15.70;3.28;;;;;;;6.60;92.37;100266.91;6215622;28;20099;-71
2023/10/16 05:16:48;;;;;;;5.90;2.60;;;;;;;6.62;91.42;100288.41;6217062;28;20056;-73
2023/10/16 06:15:55;;;;;;;5.28;2.83;;;;;;;7.35;93.18;100364.06;6220259;28;20513;-71
2023/10/16 06:18:59;;;;;;;4.85;2.70;;;;;;;7.47;93.38;100369.59;6218901;28;20168;-71
2023/10/16 06:22:06;;;;;;;7.35;2.50;;;;;;;7.51;93.42;100370.28;6219138;28;20053;-72
2023/10/16 06:25:10;;;;;;;3.08;2.30;;;;;;;7.62;93.72;100375.88;6219108;28;20064;-73
2023/10/16 06:28:11;;;;;;;3.60;2.15;;;;;;;7.70;94.23;100377.28;6220348;28;20452;-73
2023/10/16 06:31:13;;;;;;;2.60;2.13;;;;;;;7.85;93.91;100387.03;6220188;28;20103;-72
2023/10/16 06:34:15;;;;;;;4.35;2.33;;;;;;;8.00;93.37;100390.69;6220192;28;20430;-73
2023/10/16 06:37:21;;;;;;;2.58;1.90;;;;;;;8.17;93.58;100389.91;6219905;28;20509;-73
2023/10/16 06:40:25;;;;;;;4.03;2.58;;;;;;;8.30;92.76;100400.59;6219067;28;20144;-73
2023/10/16 06:43:26;;;;;;;2.20;1.98;;;;;;;8.42;91.38;100403.50;6218914;28;20064;-73
2023/10/16 06:46:26;;;;;;;5.25;2.22;;;;;;;8.49;89.92;100411.88;6220140;28;20053;-73
2023/10/16 06:49:35;;;;;;;4.30;2.42;;;;;;;8.65;91.21;100419.81;6218890;28;20050;-72
2023/10/16 06:52:39;;;;;;;9.73;1.90;;;;;;;8.79;89.82;100417.41;6219720;28;20064;-73
2023/10/16 06:55:45;;;;;;;3.28;2.17;;;;;;;8.93;88.23;100426.28;6219580;28;20490;-73
2023/10/16 06:58:46;;;;;;;4.82;2.25;;;;;;;9.04;87.98;100418.81;6219658;28;20132;-73
2023/10/16 07:01:47;;;;;;;3.92;1.92;;;;;;;9.18;88.47;100418.97;6218437;28;20053;-72
2023/10/16 07:04:48;;;;;;;5.47;2.17;;;;;;;9.26;86.54;100426.38;6218302;28;20057;-72
2023/10/16 07:07:49;;;;;;;3.75;2.13;;;;;;;9.40;87.56;100430.91;6218522;28;20107;-73
2023/10/16 07:10:56;;;;;;;2.80;2.25;;;;;;;9.27;86.50;100417.66;6218138;28;20045;-72
2023/10/16 07:13:57;;;;;;;4.97;2.35;;;;;;;9.43;85.08;100428.13;6219500;28;20058;-73
2023/10/16 07:16:59;;;;;;;3.67;2.10;;;;;;;9.62;84.25;100426.31;6219279;28;20054;-73
2023/10/16 07:20:17;;;;;;;4.68;2.60;;;;;;;9.66;84.47;100425.22;6218287;28;20102;-73
2023/10/16 07:23:24;;;;;;;4.53;2.20;;;;;;;9.82;83.98;100435.72;6219078;28;20117;-73
2023/10/16 07:26:26;;;;;;;4.45;2.30;;;;;;;9.88;84.70;100432.78;6219162;28;20056;-72
2023/10/16 07:29:29;;;;;;;6.70;2.40;;;;;;;10.06;84.70;100427.53;6219144;28;20065;-72
2023/10/16 07:32:30;;;;;;;3.58;2.45;;;;;;;10.22;84.35;100436.22;6258603;28;20465;-72
2023/10/16 07:35:30;;;;;;;9.23;2.63;;;;;;;10.38;81.45;100445.88;6293849;28;20133;-72
2023/10/16 07:38:31;;;;;;;4.30;2.42;;;;;;;10.39;80.31;100440.56;6219132;28;20046;-72
2023/10/16 07:41:33;;;;;;;3.03;2.15;;;;;;;10.55;80.64;100448.38;6317702;28;20107;-73
2023/10/16 07:44:35;;;;;;;3.55;1.73;;;;;;;10.69;77.76;100439.81;6217977;28;20061;-72
2023/10/16 07:47:36;;;;;;;;;;;;;;;10.55;76.97;100440.56;6219259;28;20057;-72
2023/10/16 07:50:38;;;;;;;2.22;1.77;;;;;;;10.70;78.26;100438.88;6217109;28;19922;-72
2023/10/16 07:53:39;;;;;;;4.15;1.83;;;;;;;10.96;78.55;100436.59;6217394;28;20057;-72
2023/10/16 07:56:40;;;;;;;5.10;2.60;;;;;;;11.10;76.91;100431.44;6218649;28;20190;-72
2023/10/16 07:59:43;;;;;;;2.95;2.00;;;;;;;11.07;77.52;100437.66;6218522;28;20107;-71
2023/10/16 08:02:46;;;;;;;3.85;2.17;;;;;;;11.11;77.32;100437.47;6217248;28;20086;-72
2023/10/16 08:05:50;;;;;;;6.05;2.53;;;;;;;11.09;75.34;100433.16;6218440;28;20057;-72
2023/10/16 08:12:53;;;;;;;3.88;1.90;;;;;;;11.62;75.83;100444.06;6218492;28;20372;-72
2023/10/16 08:15:34;;;;;;;3.17;2.22;;;;;;;11.50;75.02;100443.00;6225777;28;20060;-71
2023/10/16 08:18:40;;;;;;;5.50;2.35;;;;;;;11.63;74.96;100447.50;6217224;28;20046;-73
2023/10/16 08:21:44;;;;;;;7.03;2.58;;;;;;;11.50;75.65;100445.63;6216986;28;20058;-72
2023/10/16 08:25:00;;;;;;;7.75;2.63;;;;;;;11.88;74.59;100452.09;6217113;28;20060;-74
2023/10/16 08:28:19;;;;;;;3.72;2.08;;;;;;;12.09;73.85;100440.41;6217108;28;20050;-74
2023/10/16 08:31:23;;;;;;;4.53;2.05;;;;;;;12.20;74.04;100434.50;6218070;28;20056;-73
2023/10/16 08:34:26;;;;;;;9.20;1.88;;;;;;;12.33;73.80;100431.13;6216722;28;20448;-72
2023/10/16 08:37:27;;;;;;;5.65;2.22;;;;;;;12.25;71.98;100432.47;6218311;28;20054;-73
2023/10/16 08:40:35;;;;;;;4.25;2.13;;;;;;;12.44;71.94;100432.13;6217160;28;20058;-72
2023/10/16 08:47:16;;;;;;;5.30;1.92;;;;;;;12.77;70.51;100437.97;6195421;28;20472;-72
2023/10/16 08:50:18;;;;;;;5.70;2.40;;;;;;;13.00;69.60;100445.16;6216853;28;20088;-73
2023/10/16 08:53:32;;;;;;;;;;;;;;;12.82;70.19;100454.22;6218010;28;20062;-71
2023/10/16 08:56:32;;;;;;;4.80;2.33;;;;;;;13.23;69.73;100458.53;6216859;28;19921;-72
2023/10/16 08:59:36;;;;;;;5.07;2.42;;;;;;;13.40;68.76;100455.66;6217838;28;20439;-71
2023/10/16 09:02:39;;;;;;;4.03;2.10;;;;;;;13.25;67.05;100465.34;6217368;28;20050;-72
2023/10/16 09:05:43;;;;;;;3.20;2.30;;;;;;;13.53;65.54;100467.97;6220750;28;20494;-71
2023/10/16 09:08:45;;;;;;;2.65;1.73;;;;;;;13.75;65.42;100462.13;6222006;28;20046;-72
2023/10/16 09:11:49;;;;;;;5.13;2.42;;;;;;;13.76;64.33;100467.28;6221840;28;20085;-73
2023/10/16 09:14:53;;;;;;;2.70;1.80;;;;;;;13.55;63.01;100466.06;6221959;28;20050;-72
2023/10/16 09:17:54;;;;;;;3.75;1.80;;;;;;;13.84;62.72;100464.97;6221768;28;20085;-73
2023/10/16 09:21:00;;;;;;;5.43;1.83;;;;;;;13.41;63.28;100467.84;6221904;28;20060;-72
2023/10/16 09:24:03;;;;;;;2.28;1.55;;;;;;;13.89;62.85;100462.84;6221519;28;20432;-72
2023/10/16 09:27:17;;;;;;;3.28;2.15;;;;;;;13.79;62.62;100466.22;6220768;28;20061;-73
2023/10/16 09:30:20;;;;;;;4.40;2.28;;;;;;;14.09;61.83;100473.78;6221590;28;20046;-73
2023/10/16 09:33:21;;;;;;;3.95;1.95;;;;;;;13.96;61.09;100480.78;6221609;28;20050;-73
2023/10/16 09:36:22;;;;;;;6.82;1.90;;;;;;;14.10;58.60;100481.56;6220302;28;20057;-73
2023/10/16 09:39:30;;;;;;;3.42;1.70;;;;;;;14.31;59.51;100488.88;6221541;28;20049;-73
2023/10/16 09:42:34;;;;;;;4.60;2.08;;;;;;;14.48;60.58;100483.28;6221237;28;20065;-73
2023/10/16 09:45:36;;;;;;;3.03;1.98;;;;;;;14.35;59.28;100479.84;6221572;28;20050;-72
2023/10/16 09:48:39;;;;;;;5.40;2.22;;;;;;;14.85;59.45;100467.56;6220083;28;20490;-72
2023/10/16 09:51:44;;;;;;;4.03;1.90;;;;;;;14.57;58.75;100473.09;6221178;28;20053;-72
2023/10/16 09:54:48;;;;;;;3.60;2.40;;;;;;;13.96;60.27;100468.53;6221083;28;20494;-72
2023/10/16 09:57:54;;;;;;;8.40;2.28;;;;;;;13.80;61.87;100468.75;6220868;28;20050;-71
2023/10/16 10:01:06;;;;;;;2.10;1.65;;;;;;;14.08;58.27;100467.69;6219929;28;20050;-71
2023/10/16 10:04:07;;;;;;;3.38;1.67;;;;;;;14.06;59.87;100471.34;6220737;28;20512;-72
2023/10/16 10:07:18;;;;;;;3.43;2.67;;;;;;;13.89;62.43;100465.47;6219865;28;20057;-73
2023/10/16 10:13:43;;;;;;;4.05;2.17;;;;;;;14.26;59.74;100475.22;6220735;28;20062;-72
2023/10/16 10:16:47;;;;;;;6.43;1.92;;;;;;;14.94;58.54;100460.78;6219214;28;20049;-72
2023/10/16 10:19:55;;;;;;;5.78;1.80;;;;;;;14.85;56.44;100454.41;6219412;28;20506;-73
2023/10/16 10:23:06;;;;;;;4.97;1.77;;;;;;;14.63;57.35;100454.28;6219245;28;20050;-73
2023/10/16 10:26:07;;;;;;;3.47;1.67;;;;;;;14.84;56.44;100465.84;6220739;28;20053;-72
2023/10/16 10:29:09;;;;;;;3.33;1.77;;;;;;;13.93;57.71;100470.53;6219179;28;20462;-73
2023/10/16 10:32:13;;;;;;;3.08;1.70;;;;;;;14.39;55.79;100460.31;6220396;28;20486;-72
2023/10/16 10:35:38;;;;;;;2.05;1.40;;;;;;;14.34;55.35;100453.69;6220362;28;20050;-72
2023/10/16 10:38:40;;;;;;;3.25;1.83;;;;;;;14.41;55.89;100457.56;6220283;28;20052;-73
2023/10/16 10:41:47;;;;;;;5.25;2.42;;;;;;;15.05;56.89;100460.00;6218935;28;20056;-73
2023/10/16 10:45:17;;;;;;;5.53;2.20;;;;;;;14.93;54.96;100455.63;6220175;28;20149;-73
2023/10/16 10:48:24;;;;;;;5.22;2.33;;;;;;;14.71;56.18;100454.56;6220022;28;20049;-72
2023/10/16 10:51:30;;;;;;;6.20;2.30;;;;;;;14.49;57.30;100447.34;6219957;28;20421;-73
2023/10/16 10:54:31;;;;;;;7.82;2.15;;;;;;;15.13;58.83;100446.28;6219849;28;20456;-73
2023/10/16 10:57:34;;;;;;;5.00;1.83;;;;;;;15.09;55.19;100435.16;6220054;28;20053;-73
2023/10/16 11:00:44;;;;;;;3.17;1.67;;;;;;;15.54;54.45;100445.81;6220029;28;20050;-73
2023/10/16 11:03:46;;;;;;;3.70;2.05;;;;;;;15.29;55.99;100444.19;6218574;28;20058;-72
2023/10/16 11:06:51;;;;;;;5.05;2.60;;;;;;;14.73;57.13;100443.97;6218486;28;20112;-72
2023/10/16 11:09:52;;;;;;;2.10;1.75;;;;;;;14.32;59.25;100444.13;6219838;28;20080;-72
2023/10/16 11:13:03;;;;;;;4.38;2.40;;;;;;;14.07;61.09;100444.19;6219432;28;20136;-72
2023/10/16 11:16:07;;;;;;;3.35;1.67;;;;;;;14.49;60.79;100439.47;6218645;28;20056;-72
2023/10/16 11:19:09;;;;;;;3.53;1.92;;;;;;;15.10;58.31;100442.09;6219359;28;20054;-72
2023/10/16 11:22:10;;;;;;;2.20;1.55;;;;;;;14.27;59.62;100435.75;6218447;28;20053;-72
2023/10/16 11:25:15;;;;;;;2.95;1.85;;;;;;;14.13;58.49;100435.06;6217503;28;20060;-72
2023/10/16 11:28:28;;;;;;;2.47;1.80;;;;;;;13.90;60.00;100435.69;6219299;28;20486;-71
2023/10/16 11:31:29;;;;;;;2.85;1.80;;;;;;;14.13;60.20;100433.25;6219284;28;20050;-73
2023/10/16 11:34:46;;;;;;;3.38;1.85;;;;;;;14.84;57.59;100433.50;6219244;28;20054;-73
2023/10/16 11:38:04;;;;;;;2.80;1.60;;;;;;;15.19;54.01;100430.06;6218983;28;20124;-72
2023/10/16 11:41:06;;;;;;;2.33;1.30;;;;;;;15.71;53.31;100426.16;6219174;28;20458;-72
2023/10/16 11:44:13;;;;;;;;;;;;;;;15.55;51.36;100425.66;6219791;28;20053;-72
2023/10/16 11:47:18;;;;;;;1.73;1.23;;;;;;;15.82;50.74;100414.81;6219191;28;19974;-72
2023/10/16 11:50:31;;;;;;;3.92;1.90;;;;;;;16.25;51.13;100420.19;6218947;28;20058;-72
2023/10/16 11:53:38;;;;;;;3.08;1.50;;;;;;;16.38;48.31;100425.31;6218832;28;20058;-71
2023/10/16 11:56:38;;;;;;;6.30;1.70;;;;;;;15.59;49.40;100424.47;6218857;28;20137;-71
2023/10/16 11:59:40;;;;;;;5.22;1.52;;;;;;;15.03;50.47;100425.09;6217678;28;20050;-71
2023/10/16 12:02:41;;;;;;;5.78;1.42;;;;;;;15.35;50.75;100424.50;6217589;28;20052;-72
2023/10/16 12:05:45;;;;;;;3.55;1.50;;;;;;;15.48;51.38;100414.72;6218568;28;20559;-71
2023/10/16 12:08:46;;;;;;;2.22;1.40;;;;;;;14.80;52.51;100408.41;6217429;28;20050;-72
2023/10/16 12:11:48;;;;;;;7.03;1.42;;;;;;;15.37;51.25;100409.47;6217386;28;20053;-71
2023/10/16 12:14:50;;;;;;;5.13;1.38;;;;;;;15.43;49.79;100409.81;6217273;28;20053;-71
2023/10/16 12:17:53;;;;;;;5.40;1.42;;;;;;;15.06;49.13;100406.50;6217331;28;20131;-73
2023/10/16 12:20:59;;;;;;;8.20;1.23;;;;;;;14.87;51.55;100413.09;6218320;28;20157;-73
2023/10/16 12:24:04;;;;;;;4.28;1.40;;;;;;;15.21;50.72;100413.22;6218443;28;20050;-73
2023/10/16 12:27:05;;;;;;;4.85;1.05;;;;;;;15.44;50.98;100414.16;6218392;28;20049;-72
2023/10/16 12:30:13;;;;;;;2.28;1.10;;;;;;;15.65;48.85;100403.78;6217083;28;20107;-73
2023/10/16 12:33:15;;;;;;;2.55;1.13;;;;;;;16.05;48.64;100402.50;6218363;28;20077;-72
2023/10/16 12:36:16;;;;;;;5.00;1.30;;;;;;;15.83;47.44;100403.34;6217988;28;20050;-72
2023/10/16 12:39:16;;;;;;;2.90;1.33;;;;;;;15.86;46.79;100397.84;6220248;28;20053;-71
2023/10/16 12:42:18;;;;;;;1.17;0.80;;;;;;;16.30;45.10;100393.50;6222421;28;20224;-73
2023/10/16 12:45:22;;;;;;;1.60;1.00;;;;;;;16.39;44.78;100389.28;6222417;28;20053;-73
2023/10/16 12:48:28;;;;;;;1.30;1.10;;;;;;;16.33;47.38;100395.91;6221186;28;20140;-73
2023/10/16 12:51:29;;;;;;;1.15;0.90;;;;;;;15.66;44.83;100396.72;6222537;28;20133;-72
2023/10/16 12:54:30;;;;;;;2.20;1.02;;;;;;;15.36;47.62;100402.50;6220776;28;20113;-73
2023/10/16 12:57:30;;;;;;;2.92;1.27;;;;;;;15.47;46.73;100392.88;6221080;28;20378;-72
2023/10/16 13:00:38;;;;;;;2.63;1.05;;;;;;;15.71;46.69;100394.59;6220955;28;20058;-72
2023/10/16 13:03:40;;;;;;;1.95;1.08;;;;;;;15.65;45.91;100398.53;6221147;28;20050;-72
2023/10/16 13:06:43;;;;;;;;;;;;;;;15.70;45.71;100398.97;6221155;28;20145;-71
2023/10/16 13:09:47;;;;;;;2.17;1.10;;;;;;;15.65;45.61;100384.53;6221988;28;19921;-72
2023/10/16 13:12:48;;;;;;;1.20;0.88;;;;;;;15.59;44.67;100382.38;6220913;28;20049;-73
2023/10/16 13:15:52;;;;;;;2.55;1.20;;;;;;;15.47;45.88;100387.59;6220513;28;20441;-72
2023/10/16 13:18:58;;;;;;;1.75;1.08;;;;;;;15.29;45.79;100376.69;6220682;28;20121;-73
2023/10/16 13:22:07;;;;;;;2.33;1.20;;;;;;;15.36;45.44;100390.22;6221748;28;20133;-73
2023/10/16 13:25:16;;;;;;;1.70;0.95;;;;;;;14.97;46.00;100380.88;6221750;28;20050;-73
2023/10/16 13:28:18;;;;;;;2.90;1.02;;;;;;;15.19;46.06;100388.84;6220352;28;20049;-72
2023/10/16 13:31:19;;;;;;;;;;;;;;;15.22;46.62;100391.25;6222282;28;20060;-72
2023/10/16 13:34:19;;;;;;;1.58;0.88;;;;;;;15.04;45.57;100393.47;6220222;28;19921;-72
2023/10/16 13:37:23;;;;;;;1.25;0.88;;;;;;;14.79;46.29;100394.44;6221484;28;20054;-72
2023/10/16 13:40:28;;;;;;;3.70;1.08;;;;;;;14.86;47.80;100397.44;6221366;28;20050;-72
2023/10/16 13:43:29;;;;;;;0.98;0.85;;;;;;;14.93;48.63;100398.69;6220311;28;20096;-73
2023/10/16 13:46:29;;;;;;;1.23;1.10;;;;;;;14.99;48.19;100400.88;6221148;28;20058;-73
2023/10/16 13:49:37;;;;;;;2.03;0.90;;;;;;;14.79;47.43;100399.69;6219657;28;20050;-72
2023/10/16 13:52:38;;;;;;;1.70;0.95;;;;;;;14.65;47.10;100398.06;6219813;28;20060;-72
2023/10/16 13:55:38;;;;;;;3.58;1.00;;;;;;;14.70;48.59;100388.09;6219820;28;20046;-72
2023/10/16 13:58:39;;;;;;;1.25;0.80;;;;;;;14.67;48.27;100390.09;6221022;28;20041;-72
2023/10/16 14:01:43;;;;;;;2.03;1.17;;;;;;;14.58;47.83;100383.72;6220885;28;20065;-73
2023/10/16 14:04:46;;;;;;;1.45;0.98;;;;;;;14.62;48.03;100381.69;6220967;28;20060;-72
2023/10/16 14:07:53;;;;;;;1.70;1.00;;;;;;;14.68;48.82;100373.34;6220797;28;20046;-72
2023/10/16 14:10:57;;;;;;;2.15;1.25;;;;;;;14.63;48.37;100372.88;6219871;28;20046;-72
2023/10/16 14:13:58;;;;;;;2.53;1.02;;;;;;;14.42;47.55;100370.00;6219570;28;20080;-72
2023/10/16 14:17:16;;;;;;;0.77;0.77;;;;;;;14.46;48.64;100369.66;6220782;28;20061;-72
2023/10/16 14:20:34;;;;;;;1.35;1.08;;;;;;;14.35;48.96;100369.59;6220501;28;20073;-72
2023/10/16 14:23:35;;;;;;;3.50;1.25;;;;;;;14.41;49.13;100371.78;6220474;28;20469;-72
2023/10/16 14:26:36;;;;;;;1.30;1.00;;;;;;;14.32;49.00;100369.81;6219225;28;20054;-73
2023/10/16 14:29:44;;;;;;;1.40;0.98;;;;;;;14.13;48.68;100366.81;6220487;28;20478;-73
2023/10/16 14:32:46;;;;;;;1.85;0.90;;;;;;;14.11;49.96;100361.69;6220484;28;20145;-73
2023/10/16 14:35:49;;;;;;;2.03;1.02;;;;;;;14.01;50.18;100358.03;6220144;28;20482;-72
2023/10/16 14:38:50;;;;;;;2.00;1.25;;;;;;;13.97;49.63;100353.94;6220102;28;20481;-72
2023/10/16 14:41:52;;;;;;;1.42;1.08;;;;;;;13.74;49.17;100355.56;6219232;28;20061;-72
2023/10/16 14:44:54;;;;;;;1.02;0.70;;;;;;;13.53;49.53;100356.09;6218884;28;20053;-73
2023/10/16 14:47:55;;;;;;;1.35;0.68;;;;;;;13.50;49.63;100364.16;6216710;28;20482;-72
2023/10/16 14:50:57;;;;;;;2.47;1.13;;;;;;;13.47;49.44;100348.66;6203265;28;20046;-72
2023/10/16 14:53:58;;;;;;;1.43;0.80;;;;;;;13.52;50.70;100358.81;6208043;28;20082;-72
2023/10/16 14:57:03;;;;;;;2.03;1.10;;;;;;;13.47;50.22;100357.34;6202937;28;20062;-72
2023/10/16 15:00:12;;;;;;;3.72;1.10;;;;;;;13.46;50.77;100353.03;6206663;28;20086;-72
2023/10/16 15:03:13;;;;;;;2.10;0.77;;;;;;;13.34;50.98;100360.88;6219924;28;20058;-72
2023/10/16 15:06:15;;;;;;;1.42;0.85;;;;;;;13.20;51.45;100361.78;6219722;28;20057;-72
2023/10/16 15:09:16;;;;;;;2.28;1.45;;;;;;;13.24;52.21;100361.50;6213543;28;20047;-72
2023/10/16 15:12:19;;;;;;;2.17;1.40;;;;;;;13.10;52.69;100367.66;6201624;28;20065;-72
2023/10/16 15:15:22;;;;;;;2.08;1.20;;;;;;;13.11;53.63;100360.63;6207838;28;20060;-72
2023/10/16 15:18:25;;;;;;;5.40;1.30;;;;;;;13.10;52.71;100370.28;6219590;28;20494;-72
2023/10/16 15:21:28;;;;;;;3.22;1.55;;;;;;;12.99;53.32;100375.41;6213470;28;20107;-72
2023/10/16 15:24:30;;;;;;;2.28;1.48;;;;;;;12.93;54.35;100374.94;6194095;28;20133;-71
2023/10/16 15:27:31;;;;;;;3.95;1.35;;;;;;;12.82;56.05;100373.03;6195643;28;20164;-73
2023/10/16 15:30:33;;;;;;;3.50;1.60;;;;;;;12.70;57.48;100385.13;6213111;28;20054;-73
2023/10/16 15:33:34;;;;;;;;;;;;;;;12.59;57.50;100385.00;6208652;28;20425;-72
2023/10/16 15:36:35;;;;;;;8.38;3.80;;;;;;;12.45;58.92;100381.47;6219365;28;19921;-72
2023/10/16 15:39:36;;;;;;;15.10;6.30;;;;;;;12.37;59.64;100378.50;6217926;28;20049;-72
2023/10/16 15:42:37;;;;;;;11.23;3.85;;;;;;;12.28;59.68;100369.44;6215537;28;20779;-72
2023/10/16 15:45:38;;;;;;;18.67;12.75;;;;;;;12.18;60.29;100375.38;6201035;28;20050;-72
2023/10/16 15:48:39;;;;;;;40.05;25.98;;;;;;;12.09;60.59;100385.47;6194902;28;20046;-72
2023/10/16 15:51:40;;;;;;;36.72;25.88;;;;;;;12.04;60.79;100390.13;6193480;28;20108;-71